Farragut, Pennsylvania
Current Conditions -  °F | °C
As of 6:54 PM on Wednesday 22 Oct 2014 (Local Time) from KIPT Reporting Station
Overcast Overcast  
Wind Chill: 51°   Ceiling: 2200
Heat Index: 51°   Visibility: 10mi
Dew Point: 41°   Wind: 10mph
Humidity: 68%   Direction: 320°NW
Pressure: 30.04"   Gusts: 23mph
Location:  41.2816°N, 76.8857°W
Report Text: KIPT 222254Z 32009G20KT 10SM OVC022 11/05 A3004 RMK AO2 SLP173 T01060050
Loading
Personal Weather Stations






























Interactive Weather Map
Tropical Storm Tracking
New forecast layout! Learn more

10-Day Weather Forecast

Advertisements
Track Severe Weather on mobile